Time;durP1;ratioP1;P1;durP2;ratioP2;P2;SDS_P1;SDS_P2;PMS_P1;PMS_P2;Temp;Humidity;BMP_temperature;BMP_pressure;BME280_temperature;BME280_humidity;BME280_pressure;Samples;Min_cycle;Max_cycle;Signal;HPM_P1;HPM_P2
2022/09/08 00:01:58;;;;;;;2.03;1.63;;;;;;;;;;5071148;28;20017;-45
2022/09/08 00:04:23;;;;;;;3.05;1.63;;;;;;;;;;5070955;28;20609;-45
2022/09/08 00:06:49;;;;;;;2.22;1.98;;;;;;;;;;5071327;28;20021;-45
2022/09/08 00:09:14;;;;;;;3.33;2.20;;;;;;;;;;5070789;28;20067;-46
2022/09/08 00:11:40;;;;;;;2.10;1.90;;;;;;;;;;5070969;28;20090;-45
2022/09/08 00:14:07;;;;;;;2.30;1.55;;;;;;;;;;5071289;28;20058;-44
2022/09/08 00:16:32;;;;;;;5.00;1.98;;;;;;;;;;5070939;28;20024;-44
2022/09/08 00:18:58;;;;;;;3.28;2.08;;;;;;;;;;5070916;28;20675;-45
2022/09/08 00:21:26;;;;;;;7.55;2.00;;;;;;;;;;5070920;28;20052;-45
2022/09/08 00:23:51;;;;;;;3.88;1.63;;;;;;;;;;5069582;28;20028;-44
2022/09/08 00:26:18;;;;;;;2.15;1.80;;;;;;;;;;5070713;28;20103;-45
2022/09/08 00:28:43;;;;;;;3.05;1.95;;;;;;;;;;5071016;28;20124;-44
2022/09/08 00:31:09;;;;;;;2.25;1.70;;;;;;;;;;5070849;28;20538;-44
2022/09/08 00:33:34;;;;;;;3.78;1.63;;;;;;;;;;5070922;28;20041;-46
2022/09/08 00:36:03;;;;;;;1.83;1.58;;;;;;;;;;5070817;28;20486;-45
2022/09/08 00:38:30;;;;;;;3.15;1.98;;;;;;;;;;5070647;28;20033;-45
2022/09/08 00:40:56;;;;;;;1.30;1.20;;;;;;;;;;5074089;28;20048;-45
2022/09/08 00:43:31;;;;;;;2.97;1.85;;;;;;;;;;5074358;28;20025;-44
2022/09/08 00:45:58;;;;;;;5.82;1.77;;;;;;;;;;5074321;28;20028;-45
2022/09/08 00:48:24;;;;;;;2.72;1.92;;;;;;;;;;5074158;28;20033;-44
2022/09/08 00:50:50;;;;;;;5.30;1.67;;;;;;;;;;5074178;28;20033;-44
2022/09/08 00:53:18;;;;;;;6.13;1.65;;;;;;;;;;5074039;28;20107;-45
2022/09/08 00:55:43;;;;;;;2.83;1.60;;;;;;;;;;5074478;28;20453;-44
2022/09/08 00:58:09;;;;;;;1.75;1.63;;;;;;;;;;5074403;28;20135;-45
2022/09/08 01:00:35;;;;;;;5.05;2.13;;;;;;;;;;5074209;28;20375;-45
2022/09/08 01:03:01;;;;;;;3.20;1.70;;;;;;;;;;5074350;28;20024;-45
2022/09/08 01:05:29;;;;;;;1.35;1.25;;;;;;;;;;5074119;28;20107;-44
2022/09/08 01:13:35;;;;;;;1.75;1.60;;;;;;;;;;5073737;28;20040;-45
2022/09/08 01:16:01;;;;;;;1.50;1.40;;;;;;;;;;5073837;28;20387;-45
2022/09/08 01:18:27;;;;;;;2.50;1.58;;;;;;;;;;5073620;28;20036;-45
2022/09/08 01:21:04;;;;;;;2.53;1.70;;;;;;;;;;5073618;28;20037;-47
2022/09/08 01:23:39;;;;;;;1.70;1.60;;;;;;;;;;5073544;28;20151;-45
2022/09/08 01:26:17;;;;;;;2.22;1.75;;;;;;;;;;5073687;28;20051;-44
2022/09/08 01:28:46;;;;;;;2.67;2.00;;;;;;;;;;5073444;28;20119;-45
2022/09/08 01:31:12;;;;;;;5.22;1.10;;;;;;;;;;5073553;28;20044;-44
2022/09/08 01:33:38;;;;;;;1.38;1.27;;;;;;;;;;5073452;28;20036;-45
2022/09/08 01:36:08;;;;;;;2.83;1.55;;;;;;;;;;5073339;28;20021;-44
2022/09/08 01:38:34;;;;;;;3.00;2.22;;;;;;;;;;5073307;28;20112;-44
2022/09/08 01:40:59;;;;;;;4.38;2.03;;;;;;;;;;5073308;28;20096;-45
2022/09/08 01:43:24;;;;;;;2.78;2.28;;;;;;;;;;5073173;28;20115;-45
2022/09/08 01:45:50;;;;;;;5.70;1.60;;;;;;;;;;5073599;28;20095;-44
2022/09/08 01:48:15;;;;;;;3.80;2.10;;;;;;;;;;5073349;28;20368;-44
2022/09/08 01:50:41;;;;;;;1.90;1.50;;;;;;;;;;5072776;28;20009;-46
2022/09/08 01:53:06;;;;;;;1.65;1.55;;;;;;;;;;5072776;28;20537;-44
2022/09/08 01:55:31;;;;;;;5.72;2.13;;;;;;;;;;5071763;28;20044;-44
2022/09/08 01:57:57;;;;;;;5.78;1.88;;;;;;;;;;5072920;28;20072;-44
2022/09/08 02:00:22;;;;;;;1.83;1.58;;;;;;;;;;5072895;28;20016;-44
2022/09/08 02:02:48;;;;;;;3.28;1.90;;;;;;;;;;5072912;28;20558;-45
2022/09/08 02:05:13;;;;;;;1.70;1.60;;;;;;;;;;5072850;28;20370;-44
2022/09/08 02:07:39;;;;;;;3.75;2.40;;;;;;;;;;5071343;28;20024;-44
2022/09/08 02:10:04;;;;;;;2.53;1.95;;;;;;;;;;5072548;28;20044;-44
2022/09/08 02:12:30;;;;;;;2.75;2.08;;;;;;;;;;5071377;28;20032;-44
2022/09/08 02:14:55;;;;;;;2.90;2.22;;;;;;;;;;5071341;28;20032;-44
2022/09/08 02:17:21;;;;;;;2.33;1.70;;;;;;;;;;5072781;28;20078;-44
2022/09/08 02:19:46;;;;;;;2.30;2.10;;;;;;;;;;5072490;28;20020;-44
2022/09/08 02:22:12;;;;;;;2.58;2.15;;;;;;;;;;5072558;28;20132;-44
2022/09/08 02:24:37;;;;;;;3.72;2.22;;;;;;;;;;5072635;28;20043;-44
2022/09/08 02:27:03;;;;;;;7.28;2.63;;;;;;;;;;5072584;28;20399;-44
2022/09/08 02:29:28;;;;;;;2.97;1.92;;;;;;;;;;5072511;28;20089;-44
2022/09/08 02:31:54;;;;;;;3.13;1.77;;;;;;;;;;5072271;28;20036;-44
2022/09/08 02:34:19;;;;;;;3.30;2.15;;;;;;;;;;5072107;28;20048;-44
2022/09/08 02:36:45;;;;;;;2.50;1.95;;;;;;;;;;5072468;28;20040;-44
2022/09/08 02:39:14;;;;;;;2.95;1.65;;;;;;;;;;5072164;28;20402;-44
2022/09/08 02:41:41;;;;;;;2.80;1.67;;;;;;;;;;5072092;28;20417;-45
2022/09/08 02:44:07;;;;;;;3.50;2.15;;;;;;;;;;5072049;28;20016;-44
2022/09/08 02:46:32;;;;;;;2.60;2.05;;;;;;;;;;5054014;28;20057;-45
2022/09/08 02:48:57;;;;;;;2.55;1.83;;;;;;;;;;5070663;28;20031;-44
2022/09/08 02:51:23;;;;;;;2.83;2.03;;;;;;;;;;5070926;28;20021;-44
2022/09/08 02:53:48;;;;;;;2.22;1.70;;;;;;;;;;5071873;28;20020;-44
2022/09/08 02:56:14;;;;;;;3.28;2.20;;;;;;;;;;5072112;28;20036;-45
2022/09/08 02:58:39;;;;;;;1.73;1.55;;;;;;;;;;5071999;28;20497;-44
2022/09/08 03:01:05;;;;;;;2.47;2.28;;;;;;;;;;5071831;28;20536;-44
2022/09/08 03:03:30;;;;;;;2.50;1.92;;;;;;;;;;5071582;28;20027;-44
2022/09/08 03:05:56;;;;;;;2.97;2.67;;;;;;;;;;5071778;28;20059;-44
2022/09/08 03:08:22;;;;;;;3.58;2.58;;;;;;;;;;5071428;28;20031;-44
2022/09/08 03:10:48;;;;;;;2.20;2.00;;;;;;;;;;5071564;28;20040;-43
2022/09/08 03:13:14;;;;;;;3.10;2.50;;;;;;;;;;5071635;28;20054;-44
2022/09/08 03:15:39;;;;;;;2.97;2.15;;;;;;;;;;5071491;28;20028;-44
2022/09/08 03:18:04;;;;;;;2.53;2.10;;;;;;;;;;5071905;28;20090;-44
2022/09/08 03:20:31;;;;;;;3.78;2.70;;;;;;;;;;5071511;28;20082;-44
2022/09/08 03:22:57;;;;;;;7.72;2.15;;;;;;;;;;5071693;28;20420;-44
2022/09/08 03:25:22;;;;;;;2.03;1.80;;;;;;;;;;5071466;28;20025;-44
2022/09/08 03:27:48;;;;;;;1.90;1.70;;;;;;;;;;5071601;28;20050;-44
2022/09/08 03:30:14;;;;;;;2.25;2.05;;;;;;;;;;5071534;28;20063;-44
2022/09/08 03:32:41;;;;;;;2.88;2.05;;;;;;;;;;5071682;28;20058;-44
2022/09/08 03:35:07;;;;;;;2.50;2.28;;;;;;;;;;5071291;28;20040;-44
2022/09/08 03:37:33;;;;;;;3.83;1.95;;;;;;;;;;5071241;28;20082;-44
2022/09/08 03:39:58;;;;;;;2.45;2.25;;;;;;;;;;5071622;28;20037;-44
2022/09/08 03:42:24;;;;;;;1.75;1.55;;;;;;;;;;5071573;28;20517;-44
2022/09/08 03:44:49;;;;;;;3.25;1.83;;;;;;;;;;5071283;28;20081;-45
2022/09/08 03:47:17;;;;;;;2.65;1.95;;;;;;;;;;5071149;28;20536;-44
2022/09/08 03:49:42;;;;;;;2.45;2.25;;;;;;;;;;5071313;28;20060;-44
2022/09/08 03:52:08;;;;;;;2.72;1.98;;;;;;;;;;5069879;28;20021;-45
2022/09/08 03:54:48;;;;;;;2.22;2.00;;;;;;;;;;5071245;28;20047;-46
2022/09/08 03:57:15;;;;;;;2.63;1.90;;;;;;;;;;5071205;28;20029;-44
2022/09/08 03:59:42;;;;;;;7.97;2.22;;;;;;;;;;5071087;28;20031;-44
2022/09/08 04:02:07;;;;;;;3.53;2.70;;;;;;;;;;5071446;28;20070;-44
2022/09/08 04:04:32;;;;;;;3.40;2.45;;;;;;;;;;5071266;28;20871;-44
2022/09/08 04:06:58;;;;;;;4.32;1.90;;;;;;;;;;5070958;28;20029;-45
2022/09/08 04:09:23;;;;;;;5.50;2.10;;;;;;;;;;5070921;28;20028;-44
2022/09/08 04:11:49;;;;;;;4.05;2.08;;;;;;;;;;5070997;28;20087;-44
2022/09/08 04:14:15;;;;;;;2.28;2.08;;;;;;;;;;5071444;28;20083;-44
2022/09/08 04:16:40;;;;;;;2.00;1.80;;;;;;;;;;5074803;28;20028;-44
2022/09/08 04:19:06;;;;;;;2.65;1.92;;;;;;;;;;5074844;28;20070;-44
2022/09/08 04:21:32;;;;;;;2.67;2.20;;;;;;;;;;5075034;28;20032;-45
2022/09/08 04:23:59;;;;;;;6.47;2.47;;;;;;;;;;5073563;28;20020;-44
2022/09/08 04:26:25;;;;;;;2.08;1.88;;;;;;;;;;5074551;28;20562;-45
2022/09/08 04:28:50;;;;;;;3.25;2.63;;;;;;;;;;5074535;28;20112;-44
2022/09/08 04:31:16;;;;;;;4.20;1.58;;;;;;;;;;5074596;28;20060;-44
2022/09/08 04:33:41;;;;;;;4.10;1.55;;;;;;;;;;5074491;28;20021;-44
2022/09/08 04:36:08;;;;;;;2.65;1.52;;;;;;;;;;5074430;28;20025;-45
2022/09/08 04:38:33;;;;;;;2.15;1.95;;;;;;;;;;5074684;28;20017;-44
2022/09/08 04:41:02;;;;;;;3.55;2.70;;;;;;;;;;5074444;28;20364;-44
2022/09/08 04:43:28;;;;;;;2.58;2.08;;;;;;;;;;5074589;28;20051;-44
2022/09/08 04:45:54;;;;;;;3.53;2.22;;;;;;;;;;5074481;28;20029;-45
2022/09/08 04:48:19;;;;;;;3.85;2.20;;;;;;;;;;5073981;28;20097;-44
2022/09/08 04:50:51;;;;;;;2.88;2.60;;;;;;;;;;5074579;28;20122;-44
2022/09/08 04:53:18;;;;;;;2.45;2.20;;;;;;;;;;5074148;28;20047;-45
2022/09/08 04:55:43;;;;;;;2.78;2.25;;;;;;;;;;5074209;28;20059;-44
2022/09/08 04:58:08;;;;;;;4.25;2.30;;;;;;;;;;5074077;28;20129;-44
2022/09/08 05:00:34;;;;;;;3.60;2.20;;;;;;;;;;5074054;28;20028;-44
2022/09/08 05:02:59;;;;;;;2.28;1.98;;;;;;;;;;5073974;28;20036;-44
2022/09/08 05:05:25;;;;;;;2.72;2.15;;;;;;;;;;5074143;28;20035;-44
2022/09/08 05:07:50;;;;;;;3.13;1.98;;;;;;;;;;5073922;28;20044;-44
2022/09/08 05:10:16;;;;;;;7.28;2.03;;;;;;;;;;5073691;28;20072;-45
2022/09/08 05:12:41;;;;;;;3.15;2.05;;;;;;;;;;5074096;28;20028;-44
2022/09/08 05:15:07;;;;;;;3.17;2.50;;;;;;;;;;5073893;28;20083;-44
2022/09/08 05:17:32;;;;;;;6.15;2.35;;;;;;;;;;5072309;28;20032;-44
2022/09/08 05:19:58;;;;;;;3.10;2.80;;;;;;;;;;5073709;28;20028;-44
2022/09/08 05:22:23;;;;;;;7.63;1.83;;;;;;;;;;5073651;28;20033;-44
2022/09/08 05:24:50;;;;;;;6.65;2.45;;;;;;;;;;5073561;28;20027;-44
2022/09/08 05:27:15;;;;;;;2.40;1.55;;;;;;;;;;5072274;28;20027;-44
2022/09/08 05:29:40;;;;;;;5.00;2.25;;;;;;;;;;5073543;28;20534;-45
2022/09/08 05:32:06;;;;;;;2.55;1.63;;;;;;;;;;5073475;28;20028;-44
2022/09/08 05:34:32;;;;;;;2.58;1.73;;;;;;;;;;5073449;28;20379;-44
2022/09/08 05:36:57;;;;;;;1.55;1.45;;;;;;;;;;5073399;28;20104;-45
2022/09/08 05:39:23;;;;;;;2.83;2.58;;;;;;;;;;5073336;28;20095;-45
2022/09/08 05:41:48;;;;;;;6.13;1.80;;;;;;;;;;5073666;28;20037;-44
2022/09/08 05:44:14;;;;;;;1.88;1.55;;;;;;;;;;5073538;28;20051;-45
2022/09/08 05:46:39;;;;;;;3.28;1.88;;;;;;;;;;5073060;28;20028;-44
2022/09/08 05:49:05;;;;;;;2.38;1.55;;;;;;;;;;5073374;28;20036;-45
2022/09/08 05:51:32;;;;;;;2.90;1.90;;;;;;;;;;5073035;28;20043;-44
2022/09/08 05:53:58;;;;;;;2.60;2.00;;;;;;;;;;5073095;28;20036;-44
2022/09/08 05:56:24;;;;;;;3.67;2.22;;;;;;;;;;5072914;28;20537;-44
2022/09/08 05:58:50;;;;;;;4.38;2.38;;;;;;;;;;5073242;28;20154;-44
2022/09/08 06:01:16;;;;;;;3.38;2.00;;;;;;;;;;5073249;28;20410;-44
2022/09/08 06:03:41;;;;;;;2.13;1.92;;;;;;;;;;5073100;28;20024;-44
2022/09/08 06:06:08;;;;;;;2.22;1.58;;;;;;;;;;5072807;28;20029;-44
2022/09/08 06:08:34;;;;;;;1.80;1.58;;;;;;;;;;5072588;28;20032;-45
2022/09/08 06:10:59;;;;;;;4.20;1.83;;;;;;;;;;5072722;28;20045;-44
2022/09/08 06:13:25;;;;;;;2.42;2.03;;;;;;;;;;5072656;28;20386;-44
2022/09/08 06:15:51;;;;;;;1.80;1.65;;;;;;;;;;5072967;28;20020;-44
2022/09/08 06:18:19;;;;;;;2.10;1.80;;;;;;;;;;5072536;28;20055;-44
2022/09/08 06:20:45;;;;;;;3.15;1.83;;;;;;;;;;5071213;28;20039;-44
2022/09/08 06:23:11;;;;;;;7.55;1.50;;;;;;;;;;5072792;28;20024;-44
2022/09/08 06:25:41;;;;;;;2.35;2.08;;;;;;;;;;5071120;28;20059;-43
2022/09/08 06:28:22;;;;;;;5.25;2.10;;;;;;;;;;5072168;28;20063;-44
2022/09/08 06:30:50;;;;;;;2.60;1.65;;;;;;;;;;5072371;28;20033;-44
2022/09/08 06:33:18;;;;;;;3.75;1.77;;;;;;;;;;5072301;28;20554;-44
2022/09/08 06:36:03;;;;;;;5.63;1.95;;;;;;;;;;5070917;28;20029;-44
2022/09/08 06:38:36;;;;;;;1.67;1.58;;;;;;;;;;5070664;28;20051;-45
2022/09/08 06:41:04;;;;;;;3.70;1.98;;;;;;;;;;5072409;28;20095;-44
2022/09/08 06:43:36;;;;;;;2.28;1.70;;;;;;;;;;5072257;28;20032;-45
2022/09/08 06:46:06;;;;;;;4.07;2.13;;;;;;;;;;5072072;28;20043;-44
2022/09/08 06:48:33;;;;;;;2.70;1.92;;;;;;;;;;5070556;28;20042;-45
2022/09/08 06:51:17;;;;;;;5.45;2.28;;;;;;;;;;5070767;28;20360;-44
2022/09/08 06:53:46;;;;;;;2.65;2.30;;;;;;;;;;5071906;28;20031;-44
2022/09/08 06:56:11;;;;;;;4.05;2.47;;;;;;;;;;5071842;28;20028;-44
2022/09/08 06:58:40;;;;;;;1.60;1.50;;;;;;;;;;5071884;28;20511;-44
2022/09/08 07:01:24;;;;;;;1.70;1.40;;;;;;;;;;5071864;28;20050;-44
2022/09/08 07:04:04;;;;;;;2.55;1.73;;;;;;;;;;5070533;28;20078;-44
2022/09/08 07:06:34;;;;;;;1.50;1.33;;;;;;;;;;5071726;28;20099;-45
2022/09/08 07:09:08;;;;;;;4.57;1.98;;;;;;;;;;5071646;28;20052;-44
2022/09/08 07:11:46;;;;;;;5.68;2.25;;;;;;;;;;5071556;28;20560;-44
2022/09/08 07:14:11;;;;;;;3.53;1.90;;;;;;;;;;5070386;28;20041;-44
2022/09/08 07:16:40;;;;;;;3.17;2.42;;;;;;;;;;5071482;28;20027;-44
2022/09/08 07:19:35;;;;;;;3.97;2.15;;;;;;;;;;5071530;28;20032;-44
2022/09/08 07:22:03;;;;;;;2.95;1.38;;;;;;;;;;5058502;28;20390;-44
2022/09/08 07:24:35;;;;;;;2.25;1.80;;;;;;;;;;5071403;28;20023;-44
2022/09/08 07:27:03;;;;;;;3.97;1.80;;;;;;;;;;5071387;28;20025;-44
2022/09/08 07:29:48;;;;;;;4.15;1.75;;;;;;;;;;5071575;28;20033;-43
2022/09/08 07:32:19;;;;;;;5.38;1.92;;;;;;;;;;5071373;28;20177;-44
2022/09/08 07:34:52;;;;;;;2.95;2.03;;;;;;;;;;5070020;28;20028;-44
2022/09/08 07:37:24;;;;;;;2.83;1.73;;;;;;;;;;5071422;28;20491;-44
2022/09/08 07:39:50;;;;;;;2.70;1.52;;;;;;;;;;5071427;28;20024;-44
2022/09/08 07:42:15;;;;;;;2.92;1.65;;;;;;;;;;5071400;28;20038;-44
2022/09/08 07:44:41;;;;;;;2.17;1.90;;;;;;;;;;5071585;28;20151;-44
2022/09/08 07:47:13;;;;;;;1.92;1.60;;;;;;;;;;5069935;28;20024;-44
2022/09/08 07:49:41;;;;;;;3.75;1.50;;;;;;;;;;5072635;28;20540;-45
2022/09/08 07:52:06;;;;;;;2.75;1.88;;;;;;;;;;5075455;28;20031;-43
2022/09/08 07:55:01;;;;;;;2.72;1.83;;;;;;;;;;5075547;28;20040;-44
2022/09/08 07:57:36;;;;;;;3.17;1.50;;;;;;;;;;5061698;28;20044;-45
2022/09/08 08:00:05;;;;;;;3.42;1.20;;;;;;;;;;5075508;28;20039;-44
2022/09/08 08:02:54;;;;;;;2.20;1.83;;;;;;;;;;5075219;28;20083;-44
2022/09/08 08:05:35;;;;;;;6.45;2.08;;;;;;;;;;5046481;28;20112;-44
2022/09/08 08:08:10;;;;;;;3.13;1.95;;;;;;;;;;5075284;28;20041;-44
2022/09/08 08:10:44;;;;;;;1.90;1.73;;;;;;;;;;5074792;28;20533;-44
2022/09/08 08:13:15;;;;;;;4.10;1.98;;;;;;;;;;5075012;28;20083;-44
2022/09/08 08:15:45;;;;;;;2.42;2.20;;;;;;;;;;5074885;28;20079;-44
2022/09/08 08:18:20;;;;;;;3.40;1.77;;;;;;;;;;5075233;28;20052;-44
2022/09/08 08:20:59;;;;;;;4.25;1.33;;;;;;;;;;5075018;28;20032;-44
2022/09/08 08:23:34;;;;;;;1.98;1.33;;;;;;;;;;5074745;28;20035;-44
2022/09/08 08:26:11;;;;;;;5.30;2.05;;;;;;;;;;5074964;28;20030;-44
2022/09/08 08:28:44;;;;;;;4.20;1.33;;;;;;;;;;5074398;28;20509;-44
2022/09/08 08:31:24;;;;;;;1.73;1.50;;;;;;;;;;5074698;28;20035;-44
2022/09/08 08:33:54;;;;;;;4.85;2.03;;;;;;;;;;5074978;28;20036;-44
2022/09/08 08:36:22;;;;;;;4.35;2.05;;;;;;;;;;5073249;28;20032;-44
2022/09/08 08:38:49;;;;;;;2.95;1.95;;;;;;;;;;5074786;28;20103;-44
2022/09/08 08:41:22;;;;;;;3.35;1.75;;;;;;;;;;5074505;28;20089;-44
2022/09/08 08:43:48;;;;;;;1.58;1.15;;;;;;;;;;5074672;28;20098;-45
2022/09/08 08:46:32;;;;;;;1.35;0.73;;;;;;;;;;5074429;28;20430;-44
2022/09/08 08:49:16;;;;;;;3.25;0.98;;;;;;;;;;5074280;28;20372;-44
2022/09/08 08:51:57;;;;;;;1.35;0.80;;;;;;;;;;5074233;28;20032;-44
2022/09/08 08:54:32;;;;;;;1.27;0.90;;;;;;;;;;5074172;28;20029;-44
2022/09/08 08:56:57;;;;;;;3.65;1.08;;;;;;;;;;5074160;28;20025;-44
2022/09/08 08:59:41;;;;;;;2.13;0.70;;;;;;;;;;5074013;28;20453;-44
2022/09/08 09:02:25;;;;;;;2.60;1.50;;;;;;;;;;5073919;28;20020;-44
2022/09/08 09:05:20;;;;;;;1.55;1.02;;;;;;;;;;5074031;28;20040;-44
2022/09/08 09:07:48;;;;;;;1.60;0.93;;;;;;;;;;5019132;28;20622;-45
2022/09/08 09:10:19;;;;;;;1.60;1.17;;;;;;;;;;5073847;28;20403;-44
2022/09/08 09:13:00;;;;;;;2.05;1.20;;;;;;;;;;5074010;28;20409;-44
2022/09/08 09:15:32;;;;;;;2.83;0.95;;;;;;;;;;5073787;28;20467;-44
2022/09/08 09:18:00;;;;;;;3.40;0.82;;;;;;;;;;5073816;28;20032;-44
2022/09/08 09:20:32;;;;;;;3.53;0.80;;;;;;;;;;5073675;28;20043;-44
2022/09/08 09:23:10;;;;;;;0.60;0.55;;;;;;;;;;5073808;28;20085;-44
2022/09/08 09:25:37;;;;;;;0.98;0.60;;;;;;;;;;5073714;28;20035;-44
2022/09/08 09:28:05;;;;;;;2.63;0.65;;;;;;;;;;5073771;28;20037;-44
2022/09/08 09:30:31;;;;;;;1.20;1.10;;;;;;;;;;5073535;28;20368;-44
2022/09/08 09:33:15;;;;;;;0.73;0.68;;;;;;;;;;5073440;28;20107;-44
2022/09/08 09:35:43;;;;;;;1.98;1.67;;;;;;;;;;5073693;28;20031;-44
2022/09/08 09:38:11;;;;;;;4.43;1.08;;;;;;;;;;5073357;28;20020;-44
2022/09/08 09:40:40;;;;;;;0.98;0.88;;;;;;;;;;5073313;28;20095;-44
2022/09/08 09:43:24;;;;;;;0.93;0.65;;;;;;;;;;5073289;28;20028;-44
2022/09/08 09:45:49;;;;;;;0.93;0.73;;;;;;;;;;5073259;28;20494;-44
2022/09/08 09:48:17;;;;;;;1.33;1.00;;;;;;;;;;5073110;28;20055;-44
2022/09/08 09:50:58;;;;;;;1.23;1.10;;;;;;;;;;5073182;28;20036;-44
2022/09/08 09:53:42;;;;;;;0.93;0.73;;;;;;;;;;5073026;28;20399;-44
2022/09/08 09:56:26;;;;;;;1.23;0.80;;;;;;;;;;5073075;28;20043;-44
2022/09/08 09:59:09;;;;;;;3.30;0.85;;;;;;;;;;5073114;28;20032;-44
2022/09/08 10:01:47;;;;;;;1.58;0.73;;;;;;;;;;5073062;28;20041;-46
2022/09/08 10:04:16;;;;;;;1.90;0.95;;;;;;;;;;5072985;28;20529;-44
2022/09/08 10:06:44;;;;;;;3.17;0.70;;;;;;;;;;5072752;28;20028;-44
2022/09/08 10:09:29;;;;;;;1.15;1.00;;;;;;;;;;5072812;28;20082;-44
2022/09/08 10:12:12;;;;;;;2.38;1.25;;;;;;;;;;5072192;28;20120;-44
2022/09/08 10:14:47;;;;;;;2.92;1.13;;;;;;;;;;5072559;28;20517;-44
2022/09/08 10:17:21;;;;;;;1.17;1.05;;;;;;;;;;5072525;28;20074;-44
2022/09/08 10:20:11;;;;;;;1.33;0.73;;;;;;;;;;5072524;28;20457;-44
2022/09/08 10:23:00;;;;;;;1.17;0.68;;;;;;;;;;5072510;28;20115;-44
2022/09/08 10:25:26;;;;;;;1.70;1.00;;;;;;;;;;5043849;28;20095;-44
2022/09/08 10:27:56;;;;;;;1.60;1.02;;;;;;;;;;5070998;28;20024;-45
2022/09/08 10:30:51;;;;;;;2.15;0.80;;;;;;;;;;5072354;28;20043;-44
2022/09/08 10:33:37;;;;;;;1.17;1.02;;;;;;;;;;5059277;28;20093;-44
2022/09/08 10:36:10;;;;;;;2.03;1.20;;;;;;;;;;5072454;28;20170;-44
2022/09/08 10:38:37;;;;;;;1.15;1.02;;;;;;;;;;5070914;28;20077;-44
2022/09/08 10:41:03;;;;;;;1.70;0.85;;;;;;;;;;5072186;28;20024;-44
2022/09/08 10:43:38;;;;;;;1.55;1.27;;;;;;;;;;5072407;28;20036;-44
2022/09/08 10:46:33;;;;;;;7.03;1.52;;;;;;;;;;5072012;28;20028;-44
2022/09/08 10:49:17;;;;;;;0.82;0.80;;;;;;;;;;5072373;28;20054;-44
2022/09/08 10:51:58;;;;;;;0.80;0.70;;;;;;;;;;5072257;28;20036;-44
2022/09/08 10:54:23;;;;;;;1.23;0.80;;;;;;;;;;5071979;28;20032;-44
2022/09/08 10:56:49;;;;;;;0.88;0.60;;;;;;;;;;5071911;28;20444;-44
2022/09/08 10:59:33;;;;;;;1.05;0.73;;;;;;;;;;5072135;28;20510;-44
2022/09/08 11:01:58;;;;;;;5.10;1.95;;;;;;;;;;5071912;28;20131;-44
2022/09/08 11:04:42;;;;;;;0.45;0.45;;;;;;;;;;5071798;28;20514;-44
2022/09/08 11:07:27;;;;;;;0.85;0.50;;;;;;;;;;5071952;28;20036;-44
2022/09/08 11:09:59;;;;;;;0.30;0.30;;;;;;;;;;5071763;28;20127;-44
2022/09/08 11:12:43;;;;;;;1.02;0.50;;;;;;;;;;5071666;28;20047;-45
2022/09/08 11:15:15;;;;;;;1.27;0.70;;;;;;;;;;5071674;28;20033;-44
2022/09/08 11:17:46;;;;;;;1.98;1.00;;;;;;;;;;5071453;28;20528;-44
2022/09/08 11:20:30;;;;;;;4.18;1.10;;;;;;;;;;5071602;28;20064;-44
2022/09/08 11:23:01;;;;;;;1.67;1.00;;;;;;;;;;5070304;28;20043;-44
2022/09/08 11:25:33;;;;;;;2.40;0.75;;;;;;;;;;5071511;28;20028;-44
2022/09/08 11:28:17;;;;;;;1.60;0.97;;;;;;;;;;5071370;28;20099;-44
2022/09/08 11:31:01;;;;;;;0.93;0.90;;;;;;;;;;5071394;28;20071;-44
2022/09/08 11:33:45;;;;;;;0.65;0.57;;;;;;;;;;5071572;28;20035;-46
2022/09/08 11:36:30;;;;;;;1.33;0.57;;;;;;;;;;5071658;28;20416;-44
2022/09/08 11:39:00;;;;;;;0.73;0.73;;;;;;;;;;5070150;28;20440;-44
2022/09/08 11:41:40;;;;;;;0.82;0.73;;;;;;;;;;5071278;28;20103;-44
2022/09/08 11:44:18;;;;;;;1.50;0.75;;;;;;;;;;5071309;28;20099;-44
2022/09/08 11:46:55;;;;;;;1.23;0.85;;;;;;;;;;5071253;28;20029;-44
2022/09/08 11:49:20;;;;;;;0.77;0.60;;;;;;;;;;5071120;28;20036;-44
2022/09/08 11:52:04;;;;;;;0.85;0.50;;;;;;;;;;5071234;28;20608;-44
2022/09/08 11:54:29;;;;;;;1.23;0.80;;;;;;;;;;5071372;28;20499;-44
2022/09/08 11:57:19;;;;;;;0.60;0.60;;;;;;;;;;5071134;28;20123;-44
2022/09/08 11:59:45;;;;;;;0.75;0.57;;;;;;;;;;5071143;28;20090;-44
2022/09/08 12:02:22;;;;;;;1.08;0.47;;;;;;;;;;5071420;28;20024;-45
2022/09/08 12:05:02;;;;;;;1.45;1.35;;;;;;;;;;5071085;28;20487;-44
2022/09/08 12:07:42;;;;;;;4.47;0.77;;;;;;;;;;5071239;28;20029;-44
2022/09/08 12:10:23;;;;;;;1.75;0.73;;;;;;;;;;5071030;28;20051;-44
2022/09/08 12:13:01;;;;;;;0.82;0.63;;;;;;;;;;5070955;28;20025;-44
2022/09/08 12:15:33;;;;;;;0.75;0.40;;;;;;;;;;5070838;28;20119;-44
2022/09/08 12:18:04;;;;;;;0.73;0.60;;;;;;;;;;5070940;28;20082;-44
2022/09/08 12:20:33;;;;;;;0.60;0.60;;;;;;;;;;5069731;28;20028;-44
2022/09/08 12:23:11;;;;;;;2.78;1.23;;;;;;;;;;5070960;28;20024;-44
2022/09/08 12:25:53;;;;;;;0.68;0.65;;;;;;;;;;5071095;28;20075;-44
2022/09/08 12:28:23;;;;;;;2.30;0.65;;;;;;;;;;5070917;28;20036;-45
2022/09/08 12:31:00;;;;;;;1.65;0.77;;;;;;;;;;5070786;28;20025;-44
2022/09/08 12:33:45;;;;;;;2.28;0.90;;;;;;;;;;5069527;28;20032;-44
2022/09/08 12:36:30;;;;;;;0.65;0.55;;;;;;;;;;5072966;28;20023;-44
2022/09/08 12:39:03;;;;;;;0.43;0.43;;;;;;;;;;5073189;28;20486;-44
2022/09/08 12:41:28;;;;;;;;;;;;;;;;;;5074575;28;20037;-44
2022/09/08 12:44:14;;;;;;;1.48;0.75;;;;;;;;;;5074484;28;19905;-45
2022/09/08 12:46:42;;;;;;;2.70;0.93;;;;;;;;;;5072434;28;20082;-44
2022/09/08 12:49:11;;;;;;;1.42;0.90;;;;;;;;;;5074266;28;20033;-44
2022/09/08 12:51:38;;;;;;;0.73;0.50;;;;;;;;;;5074496;28;20028;-44
2022/09/08 12:54:21;;;;;;;0.70;0.65;;;;;;;;;;5073710;28;20472;-44
2022/09/08 12:56:48;;;;;;;3.20;0.60;;;;;;;;;;5074188;28;20028;-44
2022/09/08 12:59:19;;;;;;;1.33;0.88;;;;;;;;;;5074181;28;20016;-45
2022/09/08 13:01:51;;;;;;;0.65;0.57;;;;;;;;;;5074115;28;20047;-44
2022/09/08 13:04:40;;;;;;;0.65;0.43;;;;;;;;;;5074076;28;20107;-44
2022/09/08 13:07:28;;;;;;;0.90;0.60;;;;;;;;;;5073894;28;20393;-44
2022/09/08 13:10:01;;;;;;;3.20;0.93;;;;;;;;;;5073823;28;20507;-44
2022/09/08 13:12:41;;;;;;;2.55;0.80;;;;;;;;;;5073955;28;20025;-45
2022/09/08 13:15:15;;;;;;;1.20;0.90;;;;;;;;;;5074222;28;20494;-44
2022/09/08 13:17:51;;;;;;;1.00;0.68;;;;;;;;;;5073948;28;20565;-44
2022/09/08 13:20:22;;;;;;;2.05;0.68;;;;;;;;;;5073871;28;20040;-44
2022/09/08 13:22:48;;;;;;;1.58;0.70;;;;;;;;;;5072058;28;20463;-45
2022/09/08 13:25:18;;;;;;;1.27;0.95;;;;;;;;;;5073501;28;20115;-44
2022/09/08 13:28:04;;;;;;;0.60;0.57;;;;;;;;;;5072153;28;20131;-45
2022/09/08 13:30:42;;;;;;;3.42;0.90;;;;;;;;;;5073569;28;20657;-44
2022/09/08 13:33:18;;;;;;;1.92;1.15;;;;;;;;;;5073631;28;20037;-45
2022/09/08 13:35:44;;;;;;;1.50;1.40;;;;;;;;;;5073309;28;20056;-45
2022/09/08 13:38:24;;;;;;;1.95;0.80;;;;;;;;;;5073447;28;20052;-44
2022/09/08 13:41:04;;;;;;;1.50;0.73;;;;;;;;;;5073263;28;20086;-45
2022/09/08 13:43:36;;;;;;;0.95;0.55;;;;;;;;;;5073293;28;20024;-45
2022/09/08 13:46:02;;;;;;;1.90;0.90;;;;;;;;;;5072025;28;20036;-44
2022/09/08 13:48:28;;;;;;;0.98;0.60;;;;;;;;;;5072251;28;20039;-44
2022/09/08 13:51:00;;;;;;;1.25;1.00;;;;;;;;;;5073205;28;20108;-44
2022/09/08 13:53:33;;;;;;;1.38;0.82;;;;;;;;;;5073164;28;20491;-44
2022/09/08 13:56:05;;;;;;;6.47;0.80;;;;;;;;;;5073093;28;20542;-45
2022/09/08 13:58:32;;;;;;;1.10;0.70;;;;;;;;;;5073042;28;20033;-44
2022/09/08 14:01:01;;;;;;;0.80;0.77;;;;;;;;;;5073341;28;20029;-45
2022/09/08 14:03:29;;;;;;;1.10;0.90;;;;;;;;;;5072888;28;20086;-44
2022/09/08 14:05:54;;;;;;;1.90;0.82;;;;;;;;;;5071616;28;20031;-44
2022/09/08 14:08:40;;;;;;;0.70;0.50;;;;;;;;;;5072859;28;20028;-44
2022/09/08 14:11:11;;;;;;;0.73;0.40;;;;;;;;;;5072489;28;20048;-44
2022/09/08 14:13:37;;;;;;;1.52;0.73;;;;;;;;;;5072619;28;20025;-44
2022/09/08 14:16:22;;;;;;;2.33;1.75;;;;;;;;;;5072667;28;20123;-45
2022/09/08 14:19:11;;;;;;;2.17;0.65;;;;;;;;;;5072421;28;20047;-44
2022/09/08 14:21:46;;;;;;;1.90;0.60;;;;;;;;;;5071235;28;20044;-44
2022/09/08 14:24:19;;;;;;;1.45;0.50;;;;;;;;;;5072525;28;20107;-44
2022/09/08 14:26:48;;;;;;;3.60;0.80;;;;;;;;;;5072378;28;20028;-44
2022/09/08 14:29:19;;;;;;;1.23;1.13;;;;;;;;;;5072700;28;20044;-44
2022/09/08 14:31:48;;;;;;;0.52;0.50;;;;;;;;;;5072324;28;20024;-44
2022/09/08 14:34:17;;;;;;;3.47;1.08;;;;;;;;;;5072452;28;20454;-44
2022/09/08 14:36:55;;;;;;;1.98;0.88;;;;;;;;;;5072253;28;20085;-44
2022/09/08 14:39:21;;;;;;;0.70;0.45;;;;;;;;;;5072274;28;20028;-45
2022/09/08 14:41:54;;;;;;;0.95;0.90;;;;;;;;;;5072243;28;20016;-45
2022/09/08 14:44:20;;;;;;;;;;;;;;;;;;5072643;28;20028;-45
2022/09/08 14:46:48;;;;;;;1.25;1.00;;;;;;;;;;5072043;28;19909;-44
2022/09/08 14:49:33;;;;;;;1.15;0.70;;;;;;;;;;5071989;28;20051;-45
2022/09/08 14:51:58;;;;;;;4.97;0.80;;;;;;;;;;5072233;28;20438;-44
2022/09/08 14:54:32;;;;;;;1.02;0.70;;;;;;;;;;5071976;28;20020;-45
2022/09/08 14:57:11;;;;;;;0.93;0.75;;;;;;;;;;5072184;28;20050;-44
2022/09/08 14:59:49;;;;;;;0.73;0.60;;;;;;;;;;5071815;28;20024;-44
2022/09/08 15:02:25;;;;;;;0.70;0.70;;;;;;;;;;5071854;28;20029;-44
2022/09/08 15:04:53;;;;;;;0.68;0.50;;;;;;;;;;5070833;28;20032;-44
2022/09/08 15:07:22;;;;;;;1.58;0.90;;;;;;;;;;5071674;28;20028;-44
2022/09/08 15:09:58;;;;;;;0.77;0.50;;;;;;;;;;5071379;28;20063;-44
2022/09/08 15:12:24;;;;;;;1.42;0.73;;;;;;;;;;5071755;28;20063;-44